sensor_id;sensor_type;location;lat;lon;timestamp;P1;durP1;ratioP1;P2;durP2;ratioP2
77322;SDS011;66384;51.052;9.850;2023-02-21T00:02:18;6.10;;;3.80;;
77322;SDS011;66384;51.052;9.850;2023-02-21T00:05:06;8.40;;;5.30;;
77322;SDS011;66384;51.052;9.850;2023-02-21T00:07:53;8.20;;;4.80;;
77322;SDS011;66384;51.052;9.850;2023-02-21T00:10:40;8.30;;;4.90;;
77322;SDS011;66384;51.052;9.850;2023-02-21T00:13:27;7.10;;;4.60;;
77322;SDS011;66384;51.052;9.850;2023-02-21T00:16:16;8.60;;;5.40;;
77322;SDS011;66384;51.052;9.850;2023-02-21T00:19:03;10.50;;;5.60;;
77322;SDS011;66384;51.052;9.850;2023-02-21T00:21:50;7.90;;;5.50;;
77322;SDS011;66384;51.052;9.850;2023-02-21T00:24:37;10.50;;;6.20;;
77322;SDS011;66384;51.052;9.850;2023-02-21T00:27:24;8.80;;;5.30;;
77322;SDS011;66384;51.052;9.850;2023-02-21T00:30:13;8.60;;;5.20;;
77322;SDS011;66384;51.052;9.850;2023-02-21T00:33:00;9.00;;;5.30;;
77322;SDS011;66384;51.052;9.850;2023-02-21T00:35:47;9.10;;;6.00;;
77322;SDS011;66384;51.052;9.850;2023-02-21T00:38:37;8.50;;;5.40;;
77322;SDS011;66384;51.052;9.850;2023-02-21T00:41:24;8.90;;;5.70;;
77322;SDS011;66384;51.052;9.850;2023-02-21T00:44:11;9.20;;;5.80;;
77322;SDS011;66384;51.052;9.850;2023-02-21T00:46:57;8.60;;;5.80;;
77322;SDS011;66384;51.052;9.850;2023-02-21T00:49:44;9.70;;;6.20;;
77322;SDS011;66384;51.052;9.850;2023-02-21T00:52:31;10.30;;;5.70;;
77322;SDS011;66384;51.052;9.850;2023-02-21T00:55:19;8.90;;;5.20;;
77322;SDS011;66384;51.052;9.850;2023-02-21T00:58:05;9.70;;;6.00;;
77322;SDS011;66384;51.052;9.850;2023-02-21T01:00:53;11.10;;;5.80;;
77322;SDS011;66384;51.052;9.850;2023-02-21T01:03:40;8.00;;;5.40;;
77322;SDS011;66384;51.052;9.850;2023-02-21T01:06:27;10.00;;;6.00;;
77322;SDS011;66384;51.052;9.850;2023-02-21T01:09:13;8.50;;;5.50;;
77322;SDS011;66384;51.052;9.850;2023-02-21T01:12:00;9.80;;;6.10;;
77322;SDS011;66384;51.052;9.850;2023-02-21T01:14:47;9.30;;;5.60;;
77322;SDS011;66384;51.052;9.850;2023-02-21T01:17:34;6.20;;;4.00;;
77322;SDS011;66384;51.052;9.850;2023-02-21T01:20:21;11.20;;;5.80;;
77322;SDS011;66384;51.052;9.850;2023-02-21T01:23:07;9.30;;;5.80;;
77322;SDS011;66384;51.052;9.850;2023-02-21T01:25:54;9.80;;;6.40;;
77322;SDS011;66384;51.052;9.850;2023-02-21T01:28:41;10.40;;;6.30;;
77322;SDS011;66384;51.052;9.850;2023-02-21T01:31:28;8.20;;;5.00;;
77322;SDS011;66384;51.052;9.850;2023-02-21T01:34:15;11.70;;;7.10;;
77322;SDS011;66384;51.052;9.850;2023-02-21T01:37:01;10.50;;;6.60;;
77322;SDS011;66384;51.052;9.850;2023-02-21T01:39:48;12.40;;;7.20;;
77322;SDS011;66384;51.052;9.850;2023-02-21T01:42:35;9.70;;;6.40;;
77322;SDS011;66384;51.052;9.850;2023-02-21T01:45:40;11.00;;;6.90;;
77322;SDS011;66384;51.052;9.850;2023-02-21T01:48:31;11.30;;;7.40;;
77322;SDS011;66384;51.052;9.850;2023-02-21T01:51:20;11.90;;;7.80;;
77322;SDS011;66384;51.052;9.850;2023-02-21T01:54:11;9.50;;;6.20;;
77322;SDS011;66384;51.052;9.850;2023-02-21T01:56:59;11.80;;;6.30;;
77322;SDS011;66384;51.052;9.850;2023-02-21T01:59:48;11.50;;;6.60;;
77322;SDS011;66384;51.052;9.850;2023-02-21T02:02:38;8.90;;;5.40;;
77322;SDS011;66384;51.052;9.850;2023-02-21T02:05:31;10.50;;;6.30;;
77322;SDS011;66384;51.052;9.850;2023-02-21T02:08:19;10.20;;;6.00;;
77322;SDS011;66384;51.052;9.850;2023-02-21T02:11:11;9.70;;;5.80;;
77322;SDS011;66384;51.052;9.850;2023-02-21T02:14:14;9.50;;;5.90;;
77322;SDS011;66384;51.052;9.850;2023-02-21T02:16:56;8.60;;;5.80;;
77322;SDS011;66384;51.052;9.850;2023-02-21T02:19:41;9.00;;;6.00;;
77322;SDS011;66384;51.052;9.850;2023-02-21T02:22:34;11.30;;;6.50;;
77322;SDS011;66384;51.052;9.850;2023-02-21T02:25:20;10.30;;;4.80;;
77322;SDS011;66384;51.052;9.850;2023-02-21T02:28:14;8.90;;;5.70;;
77322;SDS011;66384;51.052;9.850;2023-02-21T02:31:00;7.60;;;5.00;;
77322;SDS011;66384;51.052;9.850;2023-02-21T02:33:56;9.30;;;6.00;;
77322;SDS011;66384;51.052;9.850;2023-02-21T02:36:47;11.20;;;6.00;;
77322;SDS011;66384;51.052;9.850;2023-02-21T02:39:22;11.80;;;6.40;;
77322;SDS011;66384;51.052;9.850;2023-02-21T02:41:59;10.00;;;6.10;;
77322;SDS011;66384;51.052;9.850;2023-02-21T02:44:36;9.50;;;5.80;;
77322;SDS011;66384;51.052;9.850;2023-02-21T02:47:13;10.80;;;6.20;;
77322;SDS011;66384;51.052;9.850;2023-02-21T02:49:47;8.80;;;4.90;;
77322;SDS011;66384;51.052;9.850;2023-02-21T02:54:56;8.30;;;4.90;;
77322;SDS011;66384;51.052;9.850;2023-02-21T02:57:27;8.10;;;5.50;;
77322;SDS011;66384;51.052;9.850;2023-02-21T03:00:07;8.30;;;4.90;;
77322;SDS011;66384;51.052;9.850;2023-02-21T03:02:40;8.30;;;5.60;;
77322;SDS011;66384;51.052;9.850;2023-02-21T03:05:27;7.20;;;4.60;;
77322;SDS011;66384;51.052;9.850;2023-02-21T03:10:42;7.70;;;5.10;;
77322;SDS011;66384;51.052;9.850;2023-02-21T03:13:20;8.10;;;5.40;;
77322;SDS011;66384;51.052;9.850;2023-02-21T03:15:56;9.50;;;5.80;;
77322;SDS011;66384;51.052;9.850;2023-02-21T03:18:32;8.60;;;5.70;;
77322;SDS011;66384;51.052;9.850;2023-02-21T03:21:10;11.60;;;6.00;;
77322;SDS011;66384;51.052;9.850;2023-02-21T03:23:42;11.10;;;6.50;;
77322;SDS011;66384;51.052;9.850;2023-02-21T03:26:14;8.70;;;5.80;;
77322;SDS011;66384;51.052;9.850;2023-02-21T03:28:45;7.70;;;5.30;;
77322;SDS011;66384;51.052;9.850;2023-02-21T03:31:17;9.10;;;6.70;;
77322;SDS011;66384;51.052;9.850;2023-02-21T03:33:51;11.30;;;7.20;;
77322;SDS011;66384;51.052;9.850;2023-02-21T03:36:20;11.20;;;6.80;;
77322;SDS011;66384;51.052;9.850;2023-02-21T03:38:50;13.00;;;7.60;;
77322;SDS011;66384;51.052;9.850;2023-02-21T03:41:20;12.90;;;7.10;;
77322;SDS011;66384;51.052;9.850;2023-02-21T03:43:49;11.30;;;6.80;;
77322;SDS011;66384;51.052;9.850;2023-02-21T03:46:19;7.50;;;5.10;;
77322;SDS011;66384;51.052;9.850;2023-02-21T03:48:48;9.90;;;6.60;;
77322;SDS011;66384;51.052;9.850;2023-02-21T03:51:18;9.90;;;6.10;;
77322;SDS011;66384;51.052;9.850;2023-02-21T03:53:47;9.00;;;6.10;;
77322;SDS011;66384;51.052;9.850;2023-02-21T03:56:17;11.60;;;6.40;;
77322;SDS011;66384;51.052;9.850;2023-02-21T03:58:46;10.10;;;6.10;;
77322;SDS011;66384;51.052;9.850;2023-02-21T04:01:16;8.90;;;5.60;;
77322;SDS011;66384;51.052;9.850;2023-02-21T04:03:45;9.90;;;6.50;;
77322;SDS011;66384;51.052;9.850;2023-02-21T04:06:14;9.80;;;6.20;;
77322;SDS011;66384;51.052;9.850;2023-02-21T04:08:44;10.20;;;6.60;;
77322;SDS011;66384;51.052;9.850;2023-02-21T04:11:16;11.10;;;6.40;;
77322;SDS011;66384;51.052;9.850;2023-02-21T04:13:46;9.60;;;6.20;;
77322;SDS011;66384;51.052;9.850;2023-02-21T04:16:16;11.00;;;6.60;;
77322;SDS011;66384;51.052;9.850;2023-02-21T04:18:45;9.20;;;6.20;;
77322;SDS011;66384;51.052;9.850;2023-02-21T04:21:16;11.70;;;7.60;;
77322;SDS011;66384;51.052;9.850;2023-02-21T04:23:45;8.70;;;5.90;;
77322;SDS011;66384;51.052;9.850;2023-02-21T04:26:15;11.90;;;6.30;;
77322;SDS011;66384;51.052;9.850;2023-02-21T04:28:44;10.90;;;6.80;;
77322;SDS011;66384;51.052;9.850;2023-02-21T04:31:14;10.10;;;6.70;;
77322;SDS011;66384;51.052;9.850;2023-02-21T04:33:45;12.60;;;6.80;;
77322;SDS011;66384;51.052;9.850;2023-02-21T04:36:14;11.30;;;7.40;;
77322;SDS011;66384;51.052;9.850;2023-02-21T04:38:44;10.10;;;6.60;;
77322;SDS011;66384;51.052;9.850;2023-02-21T04:43:43;11.10;;;6.60;;
77322;SDS011;66384;51.052;9.850;2023-02-21T04:46:14;10.90;;;6.10;;
77322;SDS011;66384;51.052;9.850;2023-02-21T04:48:46;10.60;;;6.40;;
77322;SDS011;66384;51.052;9.850;2023-02-21T04:51:17;10.90;;;6.30;;
77322;SDS011;66384;51.052;9.850;2023-02-21T04:53:48;8.80;;;5.30;;
77322;SDS011;66384;51.052;9.850;2023-02-21T04:56:20;9.40;;;6.50;;
77322;SDS011;66384;51.052;9.850;2023-02-21T04:58:50;9.00;;;6.40;;
77322;SDS011;66384;51.052;9.850;2023-02-21T05:01:20;12.50;;;7.60;;
77322;SDS011;66384;51.052;9.850;2023-02-21T05:03:49;10.90;;;6.50;;
77322;SDS011;66384;51.052;9.850;2023-02-21T05:06:19;11.40;;;6.70;;
77322;SDS011;66384;51.052;9.850;2023-02-21T05:08:50;11.20;;;7.10;;
77322;SDS011;66384;51.052;9.850;2023-02-21T05:11:20;9.40;;;6.20;;
77322;SDS011;66384;51.052;9.850;2023-02-21T05:13:50;12.60;;;7.20;;
77322;SDS011;66384;51.052;9.850;2023-02-21T05:16:19;10.30;;;7.20;;
77322;SDS011;66384;51.052;9.850;2023-02-21T05:18:49;10.10;;;6.90;;
77322;SDS011;66384;51.052;9.850;2023-02-21T05:21:18;10.70;;;6.90;;
77322;SDS011;66384;51.052;9.850;2023-02-21T05:23:48;10.40;;;5.70;;
77322;SDS011;66384;51.052;9.850;2023-02-21T05:26:23;10.30;;;6.30;;
77322;SDS011;66384;51.052;9.850;2023-02-21T05:28:56;10.50;;;6.50;;
77322;SDS011;66384;51.052;9.850;2023-02-21T05:31:25;10.60;;;6.70;;
77322;SDS011;66384;51.052;9.850;2023-02-21T05:33:55;10.10;;;6.30;;
77322;SDS011;66384;51.052;9.850;2023-02-21T05:36:24;12.20;;;7.80;;
77322;SDS011;66384;51.052;9.850;2023-02-21T05:38:54;10.00;;;6.70;;
77322;SDS011;66384;51.052;9.850;2023-02-21T05:41:23;11.30;;;7.60;;
77322;SDS011;66384;51.052;9.850;2023-02-21T05:43:53;9.30;;;5.80;;
77322;SDS011;66384;51.052;9.850;2023-02-21T05:46:23;10.30;;;5.60;;
77322;SDS011;66384;51.052;9.850;2023-02-21T05:48:54;10.20;;;6.20;;
77322;SDS011;66384;51.052;9.850;2023-02-21T05:51:25;10.70;;;6.80;;
77322;SDS011;66384;51.052;9.850;2023-02-21T05:53:55;9.70;;;6.30;;
77322;SDS011;66384;51.052;9.850;2023-02-21T05:56:24;8.30;;;5.30;;
77322;SDS011;66384;51.052;9.850;2023-02-21T05:58:53;11.60;;;7.00;;
77322;SDS011;66384;51.052;9.850;2023-02-21T06:01:23;10.90;;;6.70;;
77322;SDS011;66384;51.052;9.850;2023-02-21T06:03:52;11.90;;;7.80;;
77322;SDS011;66384;51.052;9.850;2023-02-21T06:06:21;12.60;;;7.10;;
77322;SDS011;66384;51.052;9.850;2023-02-21T06:08:50;11.40;;;7.30;;
77322;SDS011;66384;51.052;9.850;2023-02-21T06:11:22;13.00;;;8.70;;
77322;SDS011;66384;51.052;9.850;2023-02-21T06:13:54;10.00;;;6.60;;
77322;SDS011;66384;51.052;9.850;2023-02-21T06:18:54;11.70;;;6.90;;
77322;SDS011;66384;51.052;9.850;2023-02-21T06:21:24;10.80;;;6.70;;
77322;SDS011;66384;51.052;9.850;2023-02-21T06:23:53;11.40;;;7.20;;
77322;SDS011;66384;51.052;9.850;2023-02-21T06:26:23;10.20;;;6.80;;
77322;SDS011;66384;51.052;9.850;2023-02-21T06:28:53;10.70;;;6.70;;
77322;SDS011;66384;51.052;9.850;2023-02-21T06:31:22;10.20;;;6.50;;
77322;SDS011;66384;51.052;9.850;2023-02-21T06:33:51;11.20;;;6.60;;
77322;SDS011;66384;51.052;9.850;2023-02-21T06:36:21;12.20;;;7.40;;
77322;SDS011;66384;51.052;9.850;2023-02-21T06:38:53;9.30;;;6.10;;
77322;SDS011;66384;51.052;9.850;2023-02-21T06:41:24;8.70;;;5.50;;
77322;SDS011;66384;51.052;9.850;2023-02-21T06:43:56;11.20;;;5.90;;
77322;SDS011;66384;51.052;9.850;2023-02-21T06:46:26;10.40;;;6.90;;
77322;SDS011;66384;51.052;9.850;2023-02-21T06:48:56;8.90;;;5.60;;
77322;SDS011;66384;51.052;9.850;2023-02-21T06:51:26;10.50;;;7.20;;
77322;SDS011;66384;51.052;9.850;2023-02-21T06:53:56;10.20;;;6.20;;
77322;SDS011;66384;51.052;9.850;2023-02-21T06:56:25;9.30;;;5.80;;
77322;SDS011;66384;51.052;9.850;2023-02-21T06:58:55;8.10;;;5.50;;
77322;SDS011;66384;51.052;9.850;2023-02-21T07:01:25;11.10;;;7.10;;
77322;SDS011;66384;51.052;9.850;2023-02-21T07:03:56;12.10;;;7.40;;
77322;SDS011;66384;51.052;9.850;2023-02-21T07:06:26;9.70;;;5.70;;
77322;SDS011;66384;51.052;9.850;2023-02-21T07:08:56;10.10;;;6.60;;
77322;SDS011;66384;51.052;9.850;2023-02-21T07:11:25;11.60;;;7.00;;
77322;SDS011;66384;51.052;9.850;2023-02-21T07:13:57;10.50;;;6.80;;
77322;SDS011;66384;51.052;9.850;2023-02-21T07:16:27;8.20;;;5.60;;
77322;SDS011;66384;51.052;9.850;2023-02-21T07:18:56;10.10;;;6.10;;
77322;SDS011;66384;51.052;9.850;2023-02-21T07:21:25;9.90;;;6.50;;
77322;SDS011;66384;51.052;9.850;2023-02-21T07:23:55;9.00;;;5.70;;
77322;SDS011;66384;51.052;9.850;2023-02-21T07:26:24;9.00;;;5.90;;
77322;SDS011;66384;51.052;9.850;2023-02-21T07:28:53;9.70;;;6.60;;
77322;SDS011;66384;51.052;9.850;2023-02-21T07:31:22;10.70;;;6.90;;
77322;SDS011;66384;51.052;9.850;2023-02-21T07:33:52;10.40;;;6.20;;
77322;SDS011;66384;51.052;9.850;2023-02-21T07:36:21;9.70;;;6.90;;
77322;SDS011;66384;51.052;9.850;2023-02-21T07:38:50;10.40;;;6.20;;
77322;SDS011;66384;51.052;9.850;2023-02-21T07:41:20;10.20;;;6.50;;
77322;SDS011;66384;51.052;9.850;2023-02-21T07:43:49;10.00;;;6.60;;
77322;SDS011;66384;51.052;9.850;2023-02-21T07:46:18;10.60;;;6.10;;
77322;SDS011;66384;51.052;9.850;2023-02-21T07:48:52;10.20;;;6.40;;
77322;SDS011;66384;51.052;9.850;2023-02-21T07:51:21;10.30;;;6.00;;
77322;SDS011;66384;51.052;9.850;2023-02-21T07:53:53;9.90;;;6.30;;
77322;SDS011;66384;51.052;9.850;2023-02-21T07:56:23;9.80;;;6.50;;
77322;SDS011;66384;51.052;9.850;2023-02-21T07:58:52;11.20;;;6.70;;
77322;SDS011;66384;51.052;9.850;2023-02-21T08:01:22;9.70;;;6.10;;
77322;SDS011;66384;51.052;9.850;2023-02-21T08:06:21;11.50;;;6.40;;
77322;SDS011;66384;51.052;9.850;2023-02-21T08:08:50;10.30;;;7.00;;
77322;SDS011;66384;51.052;9.850;2023-02-21T08:11:20;10.70;;;7.00;;
77322;SDS011;66384;51.052;9.850;2023-02-21T08:13:49;10.80;;;7.50;;
77322;SDS011;66384;51.052;9.850;2023-02-21T08:16:19;9.30;;;6.80;;
77322;SDS011;66384;51.052;9.850;2023-02-21T08:18:48;10.80;;;7.60;;
77322;SDS011;66384;51.052;9.850;2023-02-21T08:21:18;11.10;;;6.50;;
77322;SDS011;66384;51.052;9.850;2023-02-21T08:23:49;10.70;;;6.90;;
77322;SDS011;66384;51.052;9.850;2023-02-21T08:26:21;8.80;;;6.10;;
77322;SDS011;66384;51.052;9.850;2023-02-21T08:28:50;10.20;;;6.50;;
77322;SDS011;66384;51.052;9.850;2023-02-21T08:31:20;9.70;;;6.40;;
77322;SDS011;66384;51.052;9.850;2023-02-21T08:33:49;10.50;;;6.40;;
77322;SDS011;66384;51.052;9.850;2023-02-21T08:36:18;8.60;;;5.50;;
77322;SDS011;66384;51.052;9.850;2023-02-21T08:38:51;9.60;;;6.30;;
77322;SDS011;66384;51.052;9.850;2023-02-21T08:41:20;9.90;;;6.20;;
77322;SDS011;66384;51.052;9.850;2023-02-21T08:43:51;9.80;;;6.10;;
77322;SDS011;66384;51.052;9.850;2023-02-21T08:46:20;10.90;;;7.30;;
77322;SDS011;66384;51.052;9.850;2023-02-21T08:48:50;13.10;;;6.80;;
77322;SDS011;66384;51.052;9.850;2023-02-21T08:51:24;10.20;;;6.30;;
77322;SDS011;66384;51.052;9.850;2023-02-21T08:53:54;10.10;;;6.50;;
77322;SDS011;66384;51.052;9.850;2023-02-21T08:56:24;8.10;;;6.10;;
77322;SDS011;66384;51.052;9.850;2023-02-21T08:58:54;10.60;;;6.50;;
77322;SDS011;66384;51.052;9.850;2023-02-21T09:01:23;9.20;;;6.10;;
77322;SDS011;66384;51.052;9.850;2023-02-21T09:03:59;9.40;;;5.70;;
77322;SDS011;66384;51.052;9.850;2023-02-21T09:06:28;10.20;;;6.20;;
77322;SDS011;66384;51.052;9.850;2023-02-21T09:08:58;8.50;;;5.80;;
77322;SDS011;66384;51.052;9.850;2023-02-21T09:11:27;9.90;;;6.10;;
77322;SDS011;66384;51.052;9.850;2023-02-21T09:13:56;9.70;;;6.40;;
77322;SDS011;66384;51.052;9.850;2023-02-21T09:16:25;9.10;;;6.00;;
77322;SDS011;66384;51.052;9.850;2023-02-21T09:18:55;8.60;;;5.80;;
77322;SDS011;66384;51.052;9.850;2023-02-21T09:21:27;8.90;;;5.40;;
77322;SDS011;66384;51.052;9.850;2023-02-21T09:23:56;6.40;;;4.00;;
77322;SDS011;66384;51.052;9.850;2023-02-21T09:26:25;8.70;;;5.40;;
77322;SDS011;66384;51.052;9.850;2023-02-21T09:28:57;7.80;;;5.20;;
77322;SDS011;66384;51.052;9.850;2023-02-21T09:31:27;9.30;;;5.70;;
77322;SDS011;66384;51.052;9.850;2023-02-21T09:33:59;9.00;;;5.40;;
77322;SDS011;66384;51.052;9.850;2023-02-21T09:36:28;10.90;;;6.30;;
77322;SDS011;66384;51.052;9.850;2023-02-21T09:38:57;10.60;;;7.10;;
77322;SDS011;66384;51.052;9.850;2023-02-21T09:41:31;9.80;;;6.20;;
77322;SDS011;66384;51.052;9.850;2023-02-21T09:44:02;11.50;;;6.60;;
77322;SDS011;66384;51.052;9.850;2023-02-21T09:46:33;10.10;;;6.50;;
77322;SDS011;66384;51.052;9.850;2023-02-21T09:49:06;8.20;;;5.70;;
77322;SDS011;66384;51.052;9.850;2023-02-21T09:51:39;6.30;;;4.50;;
77322;SDS011;66384;51.052;9.850;2023-02-21T09:54:12;8.30;;;5.60;;
77322;SDS011;66384;51.052;9.850;2023-02-21T09:56:49;8.30;;;5.50;;
77322;SDS011;66384;51.052;9.850;2023-02-21T09:59:20;6.80;;;4.80;;
77322;SDS011;66384;51.052;9.850;2023-02-21T10:04:33;10.00;;;6.20;;
77322;SDS011;66384;51.052;9.850;2023-02-21T10:07:10;9.50;;;5.10;;
77322;SDS011;66384;51.052;9.850;2023-02-21T10:09:45;8.90;;;5.60;;
77322;SDS011;66384;51.052;9.850;2023-02-21T10:12:23;7.40;;;5.20;;
77322;SDS011;66384;51.052;9.850;2023-02-21T10:15:07;8.50;;;5.40;;
77322;SDS011;66384;51.052;9.850;2023-02-21T10:17:51;7.50;;;4.90;;
77322;SDS011;66384;51.052;9.850;2023-02-21T10:20:27;12.40;;;5.70;;
77322;SDS011;66384;51.052;9.850;2023-02-21T10:23:01;8.20;;;5.50;;
77322;SDS011;66384;51.052;9.850;2023-02-21T10:25:41;8.30;;;5.70;;
77322;SDS011;66384;51.052;9.850;2023-02-21T10:28:16;8.10;;;5.70;;
77322;SDS011;66384;51.052;9.850;2023-02-21T10:30:46;7.20;;;4.80;;
77322;SDS011;66384;51.052;9.850;2023-02-21T10:33:18;8.30;;;5.70;;
77322;SDS011;66384;51.052;9.850;2023-02-21T10:35:47;9.00;;;5.70;;
77322;SDS011;66384;51.052;9.850;2023-02-21T10:38:22;9.10;;;6.10;;
77322;SDS011;66384;51.052;9.850;2023-02-21T10:40:54;9.70;;;5.20;;
77322;SDS011;66384;51.052;9.850;2023-02-21T10:43:27;6.60;;;4.60;;
77322;SDS011;66384;51.052;9.850;2023-02-21T10:46:02;8.20;;;5.00;;
77322;SDS011;66384;51.052;9.850;2023-02-21T10:48:36;8.20;;;5.60;;
77322;SDS011;66384;51.052;9.850;2023-02-21T10:51:08;8.60;;;5.20;;
77322;SDS011;66384;51.052;9.850;2023-02-21T10:53:39;8.70;;;5.90;;
77322;SDS011;66384;51.052;9.850;2023-02-21T10:58:52;6.20;;;4.80;;
77322;SDS011;66384;51.052;9.850;2023-02-21T11:01:31;9.50;;;6.00;;
77322;SDS011;66384;51.052;9.850;2023-02-21T11:04:03;10.40;;;6.60;;
77322;SDS011;66384;51.052;9.850;2023-02-21T11:06:48;10.90;;;6.80;;
77322;SDS011;66384;51.052;9.850;2023-02-21T11:09:28;9.20;;;5.60;;
77322;SDS011;66384;51.052;9.850;2023-02-21T11:12:02;7.90;;;5.10;;
77322;SDS011;66384;51.052;9.850;2023-02-21T11:14:35;9.80;;;5.70;;
77322;SDS011;66384;51.052;9.850;2023-02-21T11:17:11;8.70;;;5.90;;
77322;SDS011;66384;51.052;9.850;2023-02-21T11:19:50;8.80;;;5.80;;
77322;SDS011;66384;51.052;9.850;2023-02-21T11:22:22;14.00;;;9.30;;
77322;SDS011;66384;51.052;9.850;2023-02-21T11:25:03;11.40;;;6.30;;
77322;SDS011;66384;51.052;9.850;2023-02-21T11:27:43;11.50;;;5.90;;
77322;SDS011;66384;51.052;9.850;2023-02-21T11:30:24;12.20;;;8.20;;
77322;SDS011;66384;51.052;9.850;2023-02-21T11:32:55;9.50;;;6.20;;
77322;SDS011;66384;51.052;9.850;2023-02-21T11:35:27;9.80;;;6.70;;
77322;SDS011;66384;51.052;9.850;2023-02-21T11:37:59;9.70;;;5.90;;
77322;SDS011;66384;51.052;9.850;2023-02-21T11:40:31;10.70;;;7.20;;
77322;SDS011;66384;51.052;9.850;2023-02-21T11:43:13;10.80;;;7.30;;
77322;SDS011;66384;51.052;9.850;2023-02-21T11:45:51;32.50;;;18.60;;
77322;SDS011;66384;51.052;9.850;2023-02-21T11:48:41;21.10;;;13.00;;
77322;SDS011;66384;51.052;9.850;2023-02-21T11:51:20;32.50;;;16.60;;
77322;SDS011;66384;51.052;9.850;2023-02-21T11:54:01;18.80;;;10.80;;
77322;SDS011;66384;51.052;9.850;2023-02-21T11:56:33;14.30;;;9.10;;
77322;SDS011;66384;51.052;9.850;2023-02-21T11:59:11;12.50;;;7.50;;
77322;SDS011;66384;51.052;9.850;2023-02-21T12:02:05;10.80;;;7.40;;
77322;SDS011;66384;51.052;9.850;2023-02-21T12:04:54;8.20;;;5.80;;
77322;SDS011;66384;51.052;9.850;2023-02-21T12:07:38;17.10;;;10.40;;
77322;SDS011;66384;51.052;9.850;2023-02-21T12:10:22;18.60;;;12.30;;
77322;SDS011;66384;51.052;9.850;2023-02-21T12:13:02;8.70;;;6.20;;
77322;SDS011;66384;51.052;9.850;2023-02-21T12:15:42;9.40;;;6.00;;
77322;SDS011;66384;51.052;9.850;2023-02-21T12:18:34;7.10;;;4.90;;
77322;SDS011;66384;51.052;9.850;2023-02-21T12:21:15;6.90;;;4.80;;
77322;SDS011;66384;51.052;9.850;2023-02-21T12:24:18;12.90;;;5.90;;
77322;SDS011;66384;51.052;9.850;2023-02-21T12:27:01;8.00;;;5.00;;
77322;SDS011;66384;51.052;9.850;2023-02-21T12:29:41;7.90;;;5.30;;
77322;SDS011;66384;51.052;9.850;2023-02-21T12:32:26;6.90;;;4.90;;
77322;SDS011;66384;51.052;9.850;2023-02-21T12:38:16;8.80;;;6.00;;
77322;SDS011;66384;51.052;9.850;2023-02-21T12:40:54;6.70;;;4.40;;
77322;SDS011;66384;51.052;9.850;2023-02-21T12:43:34;7.30;;;4.70;;
77322;SDS011;66384;51.052;9.850;2023-02-21T12:46:15;7.60;;;5.30;;
77322;SDS011;66384;51.052;9.850;2023-02-21T12:48:53;7.60;;;4.60;;
77322;SDS011;66384;51.052;9.850;2023-02-21T12:51:27;8.60;;;5.50;;
77322;SDS011;66384;51.052;9.850;2023-02-21T12:54:02;7.70;;;5.30;;
77322;SDS011;66384;51.052;9.850;2023-02-21T12:56:36;7.00;;;5.20;;
77322;SDS011;66384;51.052;9.850;2023-02-21T12:59:12;6.00;;;4.20;;
77322;SDS011;66384;51.052;9.850;2023-02-21T13:01:48;7.90;;;4.70;;
77322;SDS011;66384;51.052;9.850;2023-02-21T13:04:23;8.70;;;5.10;;
77322;SDS011;66384;51.052;9.850;2023-02-21T13:07:01;6.60;;;4.40;;
77322;SDS011;66384;51.052;9.850;2023-02-21T13:09:51;6.30;;;4.60;;
77322;SDS011;66384;51.052;9.850;2023-02-21T13:12:29;7.70;;;5.20;;
77322;SDS011;66384;51.052;9.850;2023-02-21T13:15:09;7.10;;;4.50;;
77322;SDS011;66384;51.052;9.850;2023-02-21T13:17:47;7.70;;;4.70;;
77322;SDS011;66384;51.052;9.850;2023-02-21T13:20:23;8.00;;;5.00;;
77322;SDS011;66384;51.052;9.850;2023-02-21T13:26:25;7.30;;;5.00;;
77322;SDS011;66384;51.052;9.850;2023-02-21T13:29:12;6.20;;;4.50;;
77322;SDS011;66384;51.052;9.850;2023-02-21T13:31:45;6.30;;;4.50;;
77322;SDS011;66384;51.052;9.850;2023-02-21T13:34:21;6.80;;;4.40;;
77322;SDS011;66384;51.052;9.850;2023-02-21T13:36:53;7.80;;;4.90;;
77322;SDS011;66384;51.052;9.850;2023-02-21T13:39:30;8.30;;;6.00;;
77322;SDS011;66384;51.052;9.850;2023-02-21T13:42:04;6.40;;;5.10;;
77322;SDS011;66384;51.052;9.850;2023-02-21T13:44:38;8.40;;;5.50;;
77322;SDS011;66384;51.052;9.850;2023-02-21T13:47:11;7.50;;;4.90;;
77322;SDS011;66384;51.052;9.850;2023-02-21T13:49:46;8.60;;;6.20;;
77322;SDS011;66384;51.052;9.850;2023-02-21T14:01:16;6.00;;;4.70;;
77322;SDS011;66384;51.052;9.850;2023-02-21T14:10:18;10.30;;;5.70;;
77322;SDS011;66384;51.052;9.850;2023-02-21T14:12:54;8.20;;;5.30;;
77322;SDS011;66384;51.052;9.850;2023-02-21T14:15:35;8.20;;;5.30;;
77322;SDS011;66384;51.052;9.850;2023-02-21T14:18:13;7.70;;;5.10;;
77322;SDS011;66384;51.052;9.850;2023-02-21T14:20:47;7.90;;;5.00;;
77322;SDS011;66384;51.052;9.850;2023-02-21T14:23:21;10.00;;;5.20;;
77322;SDS011;66384;51.052;9.850;2023-02-21T14:34:25;6.00;;;4.00;;
77322;SDS011;66384;51.052;9.850;2023-02-21T14:37:01;7.80;;;4.80;;
77322;SDS011;66384;51.052;9.850;2023-02-21T14:39:37;8.20;;;5.00;;
77322;SDS011;66384;51.052;9.850;2023-02-21T14:42:18;6.70;;;4.90;;
77322;SDS011;66384;51.052;9.850;2023-02-21T14:45:08;6.80;;;4.60;;
77322;SDS011;66384;51.052;9.850;2023-02-21T14:50:44;6.50;;;4.60;;
77322;SDS011;66384;51.052;9.850;2023-02-21T14:53:48;7.50;;;5.20;;
77322;SDS011;66384;51.052;9.850;2023-02-21T14:56:50;8.40;;;5.70;;
77322;SDS011;66384;51.052;9.850;2023-02-21T15:02:32;7.70;;;5.00;;
77322;SDS011;66384;51.052;9.850;2023-02-21T15:05:09;7.20;;;5.70;;
77322;SDS011;66384;51.052;9.850;2023-02-21T15:07:47;8.20;;;5.30;;
77322;SDS011;66384;51.052;9.850;2023-02-21T15:10:23;8.70;;;5.40;;
77322;SDS011;66384;51.052;9.850;2023-02-21T15:12:54;7.20;;;5.50;;
77322;SDS011;66384;51.052;9.850;2023-02-21T15:15:25;8.30;;;5.40;;
77322;SDS011;66384;51.052;9.850;2023-02-21T15:18:06;8.40;;;5.90;;
77322;SDS011;66384;51.052;9.850;2023-02-21T15:20:37;9.40;;;6.50;;
77322;SDS011;66384;51.052;9.850;2023-02-21T15:25:40;10.40;;;6.70;;
77322;SDS011;66384;51.052;9.850;2023-02-21T15:28:21;10.20;;;7.50;;
77322;SDS011;66384;51.052;9.850;2023-02-21T15:30:58;9.50;;;6.60;;
77322;SDS011;66384;51.052;9.850;2023-02-21T15:33:33;10.90;;;7.70;;
77322;SDS011;66384;51.052;9.850;2023-02-21T15:36:05;9.50;;;6.40;;
77322;SDS011;66384;51.052;9.850;2023-02-21T15:38:42;10.50;;;5.80;;
77322;SDS011;66384;51.052;9.850;2023-02-21T15:41:18;12.50;;;7.90;;
77322;SDS011;66384;51.052;9.850;2023-02-21T15:43:54;11.90;;;7.80;;
77322;SDS011;66384;51.052;9.850;2023-02-21T15:46:30;8.20;;;5.80;;
77322;SDS011;66384;51.052;9.850;2023-02-21T15:51:37;7.80;;;5.30;;
77322;SDS011;66384;51.052;9.850;2023-02-21T15:54:20;10.30;;;6.70;;
77322;SDS011;66384;51.052;9.850;2023-02-21T15:57:02;8.80;;;6.50;;
77322;SDS011;66384;51.052;9.850;2023-02-21T15:59:44;11.30;;;8.10;;
77322;SDS011;66384;51.052;9.850;2023-02-21T16:02:15;15.20;;;10.10;;
77322;SDS011;66384;51.052;9.850;2023-02-21T16:04:49;13.70;;;9.50;;
77322;SDS011;66384;51.052;9.850;2023-02-21T16:07:20;14.40;;;9.90;;
77322;SDS011;66384;51.052;9.850;2023-02-21T16:09:58;10.40;;;7.60;;
77322;SDS011;66384;51.052;9.850;2023-02-21T16:12:30;10.30;;;7.30;;
77322;SDS011;66384;51.052;9.850;2023-02-21T16:15:06;10.30;;;7.10;;
77322;SDS011;66384;51.052;9.850;2023-02-21T16:17:51;11.70;;;8.50;;
77322;SDS011;66384;51.052;9.850;2023-02-21T16:20:24;11.30;;;9.80;;
77322;SDS011;66384;51.052;9.850;2023-02-21T16:23:12;11.90;;;9.30;;
77322;SDS011;66384;51.052;9.850;2023-02-21T16:25:56;12.10;;;9.10;;
77322;SDS011;66384;51.052;9.850;2023-02-21T16:28:27;10.10;;;6.60;;
77322;SDS011;66384;51.052;9.850;2023-02-21T16:30:58;9.00;;;6.30;;
77322;SDS011;66384;51.052;9.850;2023-02-21T16:33:29;7.80;;;5.40;;